sensor_id;sensor_type;location;lat;lon;timestamp;pressure;altitude;pressure_sealevel;temperature;humidity
50977;BME280;36992;48.200;12.418;2023-05-02T00:00:25;96761.97;;;15.01;55.65
50977;BME280;36992;48.200;12.418;2023-05-02T00:02:52;96756.88;;;14.99;56.33
50977;BME280;36992;48.200;12.418;2023-05-02T00:05:18;96756.09;;;14.99;55.70
50977;BME280;36992;48.200;12.418;2023-05-02T00:07:45;96754.50;;;14.97;55.81
50977;BME280;36992;48.200;12.418;2023-05-02T00:10:12;96754.50;;;14.97;56.10
50977;BME280;36992;48.200;12.418;2023-05-02T00:12:40;96761.50;;;14.99;55.61
50977;BME280;36992;48.200;12.418;2023-05-02T00:15:07;96755.28;;;14.98;55.54
50977;BME280;36992;48.200;12.418;2023-05-02T00:17:34;96759.91;;;14.97;55.85
50977;BME280;36992;48.200;12.418;2023-05-02T00:20:01;96765.34;;;14.97;56.16
50977;BME280;36992;48.200;12.418;2023-05-02T00:22:28;96766.94;;;14.99;55.91
50977;BME280;36992;48.200;12.418;2023-05-02T00:24:55;96760.69;;;14.98;55.90
50977;BME280;36992;48.200;12.418;2023-05-02T00:27:22;96760.69;;;14.98;55.36
50977;BME280;36992;48.200;12.418;2023-05-02T00:29:50;96763.91;;;15.00;55.92
50977;BME280;36992;48.200;12.418;2023-05-02T00:32:17;96765.34;;;14.97;56.53
50977;BME280;36992;48.200;12.418;2023-05-02T00:34:43;96757.19;;;14.97;56.17
50977;BME280;36992;48.200;12.418;2023-05-02T00:37:10;96755.94;;;14.95;55.82
50977;BME280;36992;48.200;12.418;2023-05-02T00:39:37;96755.94;;;14.95;56.27
50977;BME280;36992;48.200;12.418;2023-05-02T00:42:03;96759.44;;;14.95;55.68
50977;BME280;36992;48.200;12.418;2023-05-02T00:44:35;96762.63;;;14.97;55.60
50977;BME280;36992;48.200;12.418;2023-05-02T00:47:02;96757.19;;;14.97;55.58
50977;BME280;36992;48.200;12.418;2023-05-02T00:49:29;96758.31;;;14.96;55.97
50977;BME280;36992;48.200;12.418;2023-05-02T00:51:57;96755.28;;;14.98;55.28
50977;BME280;36992;48.200;12.418;2023-05-02T00:54:23;96751.78;;;14.97;55.64
50977;BME280;36992;48.200;12.418;2023-05-02T00:56:50;96756.09;;;14.99;55.52
50977;BME280;36992;48.200;12.418;2023-05-02T00:59:17;96757.66;;;15.00;55.74
50977;BME280;36992;48.200;12.418;2023-05-02T01:02:05;96764.84;;;15.04;55.26
50977;BME280;36992;48.200;12.418;2023-05-02T01:04:41;96765.03;;;15.08;54.91
50977;BME280;36992;48.200;12.418;2023-05-02T01:07:21;96762.31;;;15.08;54.50
50977;BME280;36992;48.200;12.418;2023-05-02T01:10:00;96767.41;;;15.09;54.63
50977;BME280;36992;48.200;12.418;2023-05-02T01:12:41;96765.03;;;15.08;54.78
50977;BME280;36992;48.200;12.418;2023-05-02T01:15:14;96768.84;;;15.07;55.22
50977;BME280;36992;48.200;12.418;2023-05-02T01:17:43;96770.75;;;15.06;55.39
50977;BME280;36992;48.200;12.418;2023-05-02T01:20:20;96771.22;;;15.08;54.57
50977;BME280;36992;48.200;12.418;2023-05-02T01:22:48;96767.09;;;15.02;55.37
50977;BME280;36992;48.200;12.418;2023-05-02T01:25:21;96770.25;;;15.04;54.80
50977;BME280;36992;48.200;12.418;2023-05-02T01:27:59;96771.06;;;15.05;54.97
50977;BME280;36992;48.200;12.418;2023-05-02T01:30:32;96769.03;;;15.02;55.15
50977;BME280;36992;48.200;12.418;2023-05-02T01:33:01;96767.59;;;14.95;55.42
50977;BME280;36992;48.200;12.418;2023-05-02T01:35:30;96769.16;;;14.96;55.06
50977;BME280;36992;48.200;12.418;2023-05-02T01:37:59;96769.50;;;14.95;55.91
50977;BME280;36992;48.200;12.418;2023-05-02T01:40:28;96770.59;;;14.94;55.39
50977;BME280;36992;48.200;12.418;2023-05-02T01:42:56;96765.03;;;14.90;55.80
50977;BME280;36992;48.200;12.418;2023-05-02T01:45:25;96775.88;;;14.90;55.77
50977;BME280;36992;48.200;12.418;2023-05-02T01:47:55;96768.22;;;14.92;55.55
50977;BME280;36992;48.200;12.418;2023-05-02T01:50:23;96783.66;;;14.92;55.67
50977;BME280;36992;48.200;12.418;2023-05-02T01:52:52;96775.88;;;14.90;55.67
50977;BME280;36992;48.200;12.418;2023-05-02T01:55:19;96777.47;;;14.91;55.76
50977;BME280;36992;48.200;12.418;2023-05-02T01:57:47;96778.59;;;14.90;55.56
50977;BME280;36992;48.200;12.418;2023-05-02T02:00:17;96779.06;;;14.92;56.00
50977;BME280;36992;48.200;12.418;2023-05-02T02:02:45;96781.31;;;14.90;56.10
50977;BME280;36992;48.200;12.418;2023-05-02T02:05:15;96786.88;;;14.94;55.66
50977;BME280;36992;48.200;12.418;2023-05-02T02:07:42;96787.84;;;14.89;55.71
50977;BME280;36992;48.200;12.418;2023-05-02T02:10:09;96790.56;;;14.89;55.74
50977;BME280;36992;48.200;12.418;2023-05-02T02:12:39;96789.09;;;14.92;55.11
50977;BME280;36992;48.200;12.418;2023-05-02T02:15:11;96789.09;;;14.92;55.79
50977;BME280;36992;48.200;12.418;2023-05-02T02:17:42;96788.00;;;14.93;55.42
50977;BME280;36992;48.200;12.418;2023-05-02T02:20:11;96789.44;;;14.90;55.40
50977;BME280;36992;48.200;12.418;2023-05-02T02:22:41;96789.59;;;14.94;55.12
50977;BME280;36992;48.200;12.418;2023-05-02T02:25:11;96789.91;;;14.92;55.81
50977;BME280;36992;48.200;12.418;2023-05-02T02:27:39;96792.16;;;14.90;55.25
50977;BME280;36992;48.200;12.418;2023-05-02T02:30:06;96788.31;;;14.91;55.68
50977;BME280;36992;48.200;12.418;2023-05-02T02:32:33;96800.28;;;14.90;55.48
50977;BME280;36992;48.200;12.418;2023-05-02T02:35:00;96803.00;;;14.90;55.61
50977;BME280;36992;48.200;12.418;2023-05-02T02:37:30;96804.28;;;14.93;55.26
50977;BME280;36992;48.200;12.418;2023-05-02T02:40:03;96809.34;;;14.94;55.30
50977;BME280;36992;48.200;12.418;2023-05-02T02:42:35;96802.34;;;14.93;55.10
50977;BME280;36992;48.200;12.418;2023-05-02T02:45:12;96807.00;;;14.93;55.02
50977;BME280;36992;48.200;12.418;2023-05-02T02:47:49;96806.19;;;14.92;55.23
50977;BME280;36992;48.200;12.418;2023-05-02T02:50:22;96802.66;;;14.92;55.07
50977;BME280;36992;48.200;12.418;2023-05-02T02:52:54;96813.19;;;14.93;54.75
50977;BME280;36992;48.200;12.418;2023-05-02T02:55:37;96802.34;;;14.93;54.32
50977;BME280;36992;48.200;12.418;2023-05-02T02:58:16;96813.19;;;14.93;54.63
50977;BME280;36992;48.200;12.418;2023-05-02T03:00:45;96814.63;;;14.91;55.46
50977;BME280;36992;48.200;12.418;2023-05-02T03:03:13;96809.19;;;14.91;55.50
50977;BME280;36992;48.200;12.418;2023-05-02T03:05:40;96810.63;;;14.88;55.40
50977;BME280;36992;48.200;12.418;2023-05-02T03:08:08;96809.53;;;14.89;55.33
50977;BME280;36992;48.200;12.418;2023-05-02T03:10:36;96806.81;;;14.89;54.98
50977;BME280;36992;48.200;12.418;2023-05-02T03:13:03;96816.88;;;14.89;55.88
50977;BME280;36992;48.200;12.418;2023-05-02T03:16:11;96815.59;;;14.95;54.53
50977;BME280;36992;48.200;12.418;2023-05-02T03:18:41;96816.06;;;14.88;54.88
50977;BME280;36992;48.200;12.418;2023-05-02T03:21:08;96819.09;;;14.87;55.68
50977;BME280;36992;48.200;12.418;2023-05-02T03:23:34;96826.13;;;14.88;55.23
50977;BME280;36992;48.200;12.418;2023-05-02T03:26:02;96822.28;;;14.89;55.51
50977;BME280;36992;48.200;12.418;2023-05-02T03:28:29;96819.88;;;14.87;54.89
50977;BME280;36992;48.200;12.418;2023-05-02T03:30:55;96825.31;;;14.87;55.09
50977;BME280;36992;48.200;12.418;2023-05-02T03:33:22;96830.72;;;14.87;55.27
50977;BME280;36992;48.200;12.418;2023-05-02T03:35:49;96830.72;;;14.87;55.50
50977;BME280;36992;48.200;12.418;2023-05-02T03:38:16;96834.56;;;14.86;55.61
50977;BME280;36992;48.200;12.418;2023-05-02T03:40:42;96827.56;;;14.85;55.79
50977;BME280;36992;48.200;12.418;2023-05-02T03:43:10;96830.72;;;14.87;55.02
50977;BME280;36992;48.200;12.418;2023-05-02T03:45:36;96831.38;;;14.84;55.65
50977;BME280;36992;48.200;12.418;2023-05-02T03:48:03;96831.38;;;14.84;55.30
50977;BME280;36992;48.200;12.418;2023-05-02T03:50:30;96839.03;;;14.82;55.35
50977;BME280;36992;48.200;12.418;2023-05-02T03:52:56;96844.44;;;14.82;55.59
50977;BME280;36992;48.200;12.418;2023-05-02T03:55:23;96852.56;;;14.82;55.44
50977;BME280;36992;48.200;12.418;2023-05-02T03:57:50;96849.09;;;14.81;55.73
50977;BME280;36992;48.200;12.418;2023-05-02T04:00:18;96853.06;;;14.84;55.80
50977;BME280;36992;48.200;12.418;2023-05-02T04:02:44;96858.34;;;14.80;55.86
50977;BME280;36992;48.200;12.418;2023-05-02T04:05:11;96859.13;;;14.81;55.76
50977;BME280;36992;48.200;12.418;2023-05-02T04:07:37;96857.53;;;14.80;56.42
50977;BME280;36992;48.200;12.418;2023-05-02T04:10:05;96862.47;;;14.78;55.56
50977;BME280;36992;48.200;12.418;2023-05-02T04:12:31;96865.19;;;14.78;55.67
50977;BME280;36992;48.200;12.418;2023-05-02T04:14:58;96860.88;;;14.77;55.76
50977;BME280;36992;48.200;12.418;2023-05-02T04:17:25;96865.97;;;14.78;55.31
50977;BME280;36992;48.200;12.418;2023-05-02T04:19:52;96863.59;;;14.77;55.57
50977;BME280;36992;48.200;12.418;2023-05-02T04:22:18;96867.41;;;14.76;55.67
50977;BME280;36992;48.200;12.418;2023-05-02T04:24:45;96866.31;;;14.77;55.50
50977;BME280;36992;48.200;12.418;2023-05-02T04:27:11;96867.41;;;14.76;55.25
50977;BME280;36992;48.200;12.418;2023-05-02T04:29:38;96875.53;;;14.76;55.58
50977;BME280;36992;48.200;12.418;2023-05-02T04:32:05;96879.38;;;14.75;55.07
50977;BME280;36992;48.200;12.418;2023-05-02T04:34:33;96875.03;;;14.74;55.13
50977;BME280;36992;48.200;12.418;2023-05-02T04:37:00;96888.13;;;14.72;55.34
50977;BME280;36992;48.200;12.418;2023-05-02T04:39:26;96878.69;;;14.69;54.98
50977;BME280;36992;48.200;12.418;2023-05-02T04:41:53;96892.56;;;14.67;55.10
50977;BME280;36992;48.200;12.418;2023-05-02T04:44:19;96891.75;;;14.67;55.18
50977;BME280;36992;48.200;12.418;2023-05-02T04:46:46;96892.88;;;14.66;54.74
50977;BME280;36992;48.200;12.418;2023-05-02T04:49:12;96893.50;;;14.63;54.92
50977;BME280;36992;48.200;12.418;2023-05-02T04:51:40;96906.25;;;14.62;55.11
50977;BME280;36992;48.200;12.418;2023-05-02T04:54:07;96908.47;;;14.60;54.95
50977;BME280;36992;48.200;12.418;2023-05-02T04:56:33;96912.31;;;14.59;54.96
50977;BME280;36992;48.200;12.418;2023-05-02T04:59:00;96917.22;;;14.57;55.04
50977;BME280;36992;48.200;12.418;2023-05-02T05:01:26;96919.94;;;14.57;54.65
50977;BME280;36992;48.200;12.418;2023-05-02T05:03:53;96923.00;;;14.55;55.05
50977;BME280;36992;48.200;12.418;2023-05-02T05:06:19;96925.19;;;14.53;55.26
50977;BME280;36992;48.200;12.418;2023-05-02T05:08:47;96929.81;;;14.53;55.35
50977;BME280;36992;48.200;12.418;2023-05-02T05:11:14;96928.84;;;14.49;55.43
50977;BME280;36992;48.200;12.418;2023-05-02T05:13:41;96930.28;;;14.46;55.49
50977;BME280;36992;48.200;12.418;2023-05-02T05:16:08;96926.78;;;14.46;55.49
50977;BME280;36992;48.200;12.418;2023-05-02T05:18:34;96931.69;;;14.43;55.10
50977;BME280;36992;48.200;12.418;2023-05-02T05:21:04;96944.75;;;14.41;55.45
50977;BME280;36992;48.200;12.418;2023-05-02T05:23:31;96951.28;;;14.40;55.79
50977;BME280;36992;48.200;12.418;2023-05-02T05:26:07;96954.97;;;14.44;54.80
50977;BME280;36992;48.200;12.418;2023-05-02T05:28:34;96960.03;;;14.37;55.50
50977;BME280;36992;48.200;12.418;2023-05-02T05:31:04;96966.44;;;14.41;54.85
50977;BME280;36992;48.200;12.418;2023-05-02T05:33:30;96963.06;;;14.36;55.84
50977;BME280;36992;48.200;12.418;2023-05-02T05:36:02;96970.25;;;14.40;54.98
50977;BME280;36992;48.200;12.418;2023-05-02T05:38:29;96977.41;;;14.36;55.65
50977;BME280;36992;48.200;12.418;2023-05-02T05:40:55;96978.53;;;14.35;55.62
50977;BME280;36992;48.200;12.418;2023-05-02T05:43:23;96981.72;;;14.37;55.30
50977;BME280;36992;48.200;12.418;2023-05-02T05:45:50;96985.53;;;14.36;55.68
50977;BME280;36992;48.200;12.418;2023-05-02T05:48:17;96996.06;;;14.38;55.93
50977;BME280;36992;48.200;12.418;2023-05-02T05:50:43;96999.25;;;14.40;55.93
50977;BME280;36992;48.200;12.418;2023-05-02T05:53:10;96993.53;;;14.41;55.51
50977;BME280;36992;48.200;12.418;2023-05-02T05:55:36;97000.56;;;14.42;55.25
50977;BME280;36992;48.200;12.418;2023-05-02T05:58:03;97001.38;;;14.43;55.67
50977;BME280;36992;48.200;12.418;2023-05-02T06:00:33;96995.00;;;14.48;55.26
50977;BME280;36992;48.200;12.418;2023-05-02T06:02:59;97005.38;;;14.46;55.73
50977;BME280;36992;48.200;12.418;2023-05-02T06:05:26;97008.56;;;14.48;55.46
50977;BME280;36992;48.200;12.418;2023-05-02T06:07:53;97009.84;;;14.50;55.56
50977;BME280;36992;48.200;12.418;2023-05-02T06:10:19;97010.63;;;14.51;56.21
50977;BME280;36992;48.200;12.418;2023-05-02T06:12:46;97016.56;;;14.53;56.24
50977;BME280;36992;48.200;12.418;2023-05-02T06:15:13;97011.63;;;14.55;55.78
50977;BME280;36992;48.200;12.418;2023-05-02T06:17:40;97022.94;;;14.57;55.62
50977;BME280;36992;48.200;12.418;2023-05-02T06:20:07;97018.34;;;14.57;55.92
50977;BME280;36992;48.200;12.418;2023-05-02T06:22:34;97022.34;;;14.60;55.97
50977;BME280;36992;48.200;12.418;2023-05-02T06:25:01;97014.69;;;14.62;55.69
50977;BME280;36992;48.200;12.418;2023-05-02T06:27:29;97019.00;;;14.63;55.93
50977;BME280;36992;48.200;12.418;2023-05-02T06:29:56;97014.09;;;14.65;55.54
50977;BME280;36992;48.200;12.418;2023-05-02T06:32:22;97016.16;;;14.68;55.73
50977;BME280;36992;48.200;12.418;2023-05-02T06:34:50;97018.25;;;14.72;55.40
50977;BME280;36992;48.200;12.418;2023-05-02T06:37:16;97019.84;;;14.73;55.65
50977;BME280;36992;48.200;12.418;2023-05-02T06:39:43;97016.88;;;14.74;56.18
50977;BME280;36992;48.200;12.418;2023-05-02T06:42:09;97023.88;;;14.75;55.99
50977;BME280;36992;48.200;12.418;2023-05-02T06:44:36;97020.88;;;14.77;56.29
50977;BME280;36992;48.200;12.418;2023-05-02T06:47:03;97024.06;;;14.79;56.07
50977;BME280;36992;48.200;12.418;2023-05-02T06:49:29;97024.84;;;14.79;55.77
50977;BME280;36992;48.200;12.418;2023-05-02T06:51:57;97020.72;;;14.82;55.69
50977;BME280;36992;48.200;12.418;2023-05-02T06:54:24;97031.91;;;14.80;56.48
50977;BME280;36992;48.200;12.418;2023-05-02T06:56:51;97028.84;;;14.82;55.64
50977;BME280;36992;48.200;12.418;2023-05-02T06:59:18;97035.91;;;14.83;56.03
50977;BME280;36992;48.200;12.418;2023-05-02T07:01:44;97040.22;;;14.84;55.37
50977;BME280;36992;48.200;12.418;2023-05-02T07:04:11;97037.50;;;14.84;55.76
50977;BME280;36992;48.200;12.418;2023-05-02T07:06:37;97045.28;;;14.86;55.48
50977;BME280;36992;48.200;12.418;2023-05-02T07:09:05;97045.50;;;14.89;55.92
50977;BME280;36992;48.200;12.418;2023-05-02T07:11:31;97050.94;;;14.89;56.21
50977;BME280;36992;48.200;12.418;2023-05-02T07:13:58;97051.41;;;14.91;55.88
50977;BME280;36992;48.200;12.418;2023-05-02T07:16:24;97053.47;;;14.94;56.37
50977;BME280;36992;48.200;12.418;2023-05-02T07:18:51;97043.91;;;14.97;56.08
50977;BME280;36992;48.200;12.418;2023-05-02T07:21:17;97046.03;;;15.00;56.07
50977;BME280;36992;48.200;12.418;2023-05-02T07:23:44;97039.16;;;15.03;56.21
50977;BME280;36992;48.200;12.418;2023-05-02T07:26:12;97045.56;;;15.07;55.69
50977;BME280;36992;48.200;12.418;2023-05-02T07:28:38;97038.69;;;15.09;56.20
50977;BME280;36992;48.200;12.418;2023-05-02T07:31:05;97032.97;;;15.11;56.46
50977;BME280;36992;48.200;12.418;2023-05-02T07:33:31;97041.28;;;15.15;56.69
50977;BME280;36992;48.200;12.418;2023-05-02T07:35:57;97037.94;;;15.18;56.47
50977;BME280;36992;48.200;12.418;2023-05-02T07:38:26;97036.19;;;15.22;56.27
50977;BME280;36992;48.200;12.418;2023-05-02T07:40:52;97037.00;;;15.22;56.06
50977;BME280;36992;48.200;12.418;2023-05-02T07:43:20;97033.34;;;15.27;55.88
50977;BME280;36992;48.200;12.418;2023-05-02T07:45:47;97028.72;;;15.28;55.73
50977;BME280;36992;48.200;12.418;2023-05-02T07:48:13;97030.78;;;15.31;55.06
50977;BME280;36992;48.200;12.418;2023-05-02T07:50:40;97037.50;;;15.33;55.85
50977;BME280;36992;48.200;12.418;2023-05-02T07:53:06;97042.63;;;15.35;55.93
50977;BME280;36992;48.200;12.418;2023-05-02T07:55:33;97049.03;;;15.39;56.80
50977;BME280;36992;48.200;12.418;2023-05-02T07:57:59;97051.91;;;15.43;56.24
50977;BME280;36992;48.200;12.418;2023-05-02T08:00:27;97050.97;;;15.47;54.37
50977;BME280;36992;48.200;12.418;2023-05-02T08:02:54;97052.56;;;15.48;54.02
50977;BME280;36992;48.200;12.418;2023-05-02T08:05:21;97057.66;;;15.50;54.63
50977;BME280;36992;48.200;12.418;2023-05-02T08:07:47;97056.25;;;15.53;54.89
50977;BME280;36992;48.200;12.418;2023-05-02T08:10:14;97058.31;;;15.56;55.33
50977;BME280;36992;48.200;12.418;2023-05-02T08:12:41;97065.03;;;15.58;55.03
50977;BME280;36992;48.200;12.418;2023-05-02T08:15:10;97064.06;;;15.63;55.25
50977;BME280;36992;48.200;12.418;2023-05-02T08:17:38;97061.34;;;15.63;55.08
50977;BME280;36992;48.200;12.418;2023-05-02T08:20:06;97068.88;;;15.66;54.18
50977;BME280;36992;48.200;12.418;2023-05-02T08:22:32;97067.75;;;15.67;53.96
50977;BME280;36992;48.200;12.418;2023-05-02T08:24:59;97063.94;;;15.68;54.69
50977;BME280;36992;48.200;12.418;2023-05-02T08:27:26;97070.94;;;15.69;55.26
50977;BME280;36992;48.200;12.418;2023-05-02T08:29:52;97062.19;;;15.72;54.96
50977;BME280;36992;48.200;12.418;2023-05-02T08:32:19;97055.63;;;15.73;54.82
50977;BME280;36992;48.200;12.418;2023-05-02T08:34:47;97061.69;;;15.79;55.22
50977;BME280;36992;48.200;12.418;2023-05-02T08:37:14;97066.81;;;15.81;55.26
50977;BME280;36992;48.200;12.418;2023-05-02T08:39:40;97067.78;;;15.85;54.64
50977;BME280;36992;48.200;12.418;2023-05-02T08:42:07;97067.97;;;15.88;54.67
50977;BME280;36992;48.200;12.418;2023-05-02T08:44:34;97075.19;;;15.93;54.68
50977;BME280;36992;48.200;12.418;2023-05-02T08:47:00;97078.38;;;15.95;54.93
50977;BME280;36992;48.200;12.418;2023-05-02T08:49:28;97073.91;;;15.99;54.46
50977;BME280;36992;48.200;12.418;2023-05-02T08:51:59;97081.91;;;16.04;54.05
50977;BME280;36992;48.200;12.418;2023-05-02T08:54:26;97088.94;;;16.05;54.04
50977;BME280;36992;48.200;12.418;2023-05-02T08:56:53;97082.06;;;16.08;54.19
50977;BME280;36992;48.200;12.418;2023-05-02T08:59:20;97086.38;;;16.09;54.38
50977;BME280;36992;48.200;12.418;2023-05-02T09:01:48;97088.94;;;16.14;54.44
50977;BME280;36992;48.200;12.418;2023-05-02T09:04:19;97093.25;;;16.15;54.20
50977;BME280;36992;48.200;12.418;2023-05-02T09:06:48;97094.84;;;16.16;54.34
50977;BME280;36992;48.200;12.418;2023-05-02T09:09:16;97092.63;;;16.18;54.19
50977;BME280;36992;48.200;12.418;2023-05-02T09:11:45;97098.22;;;16.22;54.18
50977;BME280;36992;48.200;12.418;2023-05-02T09:14:15;97098.38;;;16.26;53.97
50977;BME280;36992;48.200;12.418;2023-05-02T09:16:42;97100.63;;;16.24;54.11
50977;BME280;36992;48.200;12.418;2023-05-02T09:19:09;97100.28;;;16.25;54.35
50977;BME280;36992;48.200;12.418;2023-05-02T09:21:38;97108.94;;;16.27;53.91
50977;BME280;36992;48.200;12.418;2023-05-02T09:24:14;97108.75;;;16.32;53.99
50977;BME280;36992;48.200;12.418;2023-05-02T09:26:55;97108.13;;;16.36;54.01
50977;BME280;36992;48.200;12.418;2023-05-02T09:29:22;97107.16;;;16.31;54.15
50977;BME280;36992;48.200;12.418;2023-05-02T09:31:49;97113.09;;;16.34;53.84
50977;BME280;36992;48.200;12.418;2023-05-02T09:34:16;97104.94;;;16.34;54.11
50977;BME280;36992;48.200;12.418;2023-05-02T09:36:44;97112.13;;;16.38;54.20
50977;BME280;36992;48.200;12.418;2023-05-02T09:39:13;97109.41;;;16.38;54.30
50977;BME280;36992;48.200;12.418;2023-05-02T09:41:39;97116.75;;;16.38;54.65
50977;BME280;36992;48.200;12.418;2023-05-02T09:44:10;97115.31;;;16.40;54.25
50977;BME280;36992;48.200;12.418;2023-05-02T09:46:40;97119.97;;;16.40;54.19
50977;BME280;36992;48.200;12.418;2023-05-02T09:49:07;97119.81;;;16.36;54.15
50977;BME280;36992;48.200;12.418;2023-05-02T09:51:34;97117.56;;;16.38;54.98
50977;BME280;36992;48.200;12.418;2023-05-02T09:54:01;97117.56;;;16.38;54.04
50977;BME280;36992;48.200;12.418;2023-05-02T09:56:27;97125.41;;;16.40;54.14
50977;BME280;36992;48.200;12.418;2023-05-02T09:59:13;97128.44;;;16.47;54.07
50977;BME280;36992;48.200;12.418;2023-05-02T10:01:40;97127.47;;;16.43;54.28
50977;BME280;36992;48.200;12.418;2023-05-02T10:04:09;97123.31;;;16.45;53.93
50977;BME280;36992;48.200;12.418;2023-05-02T10:06:41;97123.31;;;16.45;54.62
50977;BME280;36992;48.200;12.418;2023-05-02T10:09:09;97119.78;;;16.45;54.24
50977;BME280;36992;48.200;12.418;2023-05-02T10:11:36;97118.69;;;16.46;54.63
50977;BME280;36992;48.200;12.418;2023-05-02T10:14:04;97125.72;;;16.47;54.92
50977;BME280;36992;48.200;12.418;2023-05-02T10:16:38;97121.22;;;16.51;54.00
50977;BME280;36992;48.200;12.418;2023-05-02T10:19:08;97123.47;;;16.49;54.84
50977;BME280;36992;48.200;12.418;2023-05-02T10:21:37;97132.09;;;16.51;54.83
50977;BME280;36992;48.200;12.418;2023-05-02T10:24:05;97119.63;;;16.50;54.97
50977;BME280;36992;48.200;12.418;2023-05-02T10:26:33;97122.84;;;16.52;54.83
50977;BME280;36992;48.200;12.418;2023-05-02T10:29:00;97121.22;;;16.51;54.62
50977;BME280;36992;48.200;12.418;2023-05-02T10:31:31;97123.78;;;16.56;54.88
50977;BME280;36992;48.200;12.418;2023-05-02T10:34:01;97116.91;;;16.59;55.09
50977;BME280;36992;48.200;12.418;2023-05-02T10:36:28;97123.94;;;16.60;55.22
50977;BME280;36992;48.200;12.418;2023-05-02T10:38:57;97115.47;;;16.62;54.76
50977;BME280;36992;48.200;12.418;2023-05-02T10:41:26;97115.31;;;16.67;54.97
50977;BME280;36992;48.200;12.418;2023-05-02T10:43:53;97114.16;;;16.68;54.62
50977;BME280;36992;48.200;12.418;2023-05-02T10:46:29;97117.69;;;16.77;54.28
50977;BME280;36992;48.200;12.418;2023-05-02T10:49:02;97119.28;;;16.78;54.80
50977;BME280;36992;48.200;12.418;2023-05-02T10:51:29;97119.59;;;16.77;53.88
50977;BME280;36992;48.200;12.418;2023-05-02T10:54:17;97122.78;;;16.88;53.86
50977;BME280;36992;48.200;12.418;2023-05-02T10:57:04;97119.88;;;16.93;53.83
50977;BME280;36992;48.200;12.418;2023-05-02T10:59:33;97116.19;;;16.89;53.86
50977;BME280;36992;48.200;12.418;2023-05-02T11:02:00;97113.66;;;16.92;53.92
50977;BME280;36992;48.200;12.418;2023-05-02T11:05:02;97110.88;;;17.01;53.48
50977;BME280;36992;48.200;12.418;2023-05-02T11:07:29;97113.97;;;16.99;53.24
50977;BME280;36992;48.200;12.418;2023-05-02T11:10:23;97114.28;;;17.07;53.07
50977;BME280;36992;48.200;12.418;2023-05-02T11:12:51;97115.25;;;17.02;53.00
50977;BME280;36992;48.200;12.418;2023-05-02T11:18:15;97120.03;;;17.05;52.10
50977;BME280;36992;48.200;12.418;2023-05-02T11:20:43;97120.50;;;17.07;52.93
50977;BME280;36992;48.200;12.418;2023-05-02T11:23:21;97119.88;;;17.10;52.57
50977;BME280;36992;48.200;12.418;2023-05-02T11:25:50;97113.00;;;17.04;52.00
50977;BME280;36992;48.200;12.418;2023-05-02T11:28:39;97116.03;;;17.11;52.25
50977;BME280;36992;48.200;12.418;2023-05-02T11:31:06;97116.34;;;17.01;51.48
50977;BME280;36992;48.200;12.418;2023-05-02T11:33:33;97117.47;;;17.00;51.69
50977;BME280;36992;48.200;12.418;2023-05-02T11:36:02;97116.69;;;16.99;51.33
50977;BME280;36992;48.200;12.418;2023-05-02T11:38:35;97118.00;;;17.02;52.32
50977;BME280;36992;48.200;12.418;2023-05-02T11:41:02;97113.97;;;16.99;51.94
50977;BME280;36992;48.200;12.418;2023-05-02T11:43:29;97122.91;;;17.00;52.28
50977;BME280;36992;48.200;12.418;2023-05-02T11:45:57;97119.59;;;17.03;52.03
50977;BME280;36992;48.200;12.418;2023-05-02T11:48:24;97123.56;;;17.06;52.08
50977;BME280;36992;48.200;12.418;2023-05-02T11:50:54;97133.03;;;17.08;52.29
50977;BME280;36992;48.200;12.418;2023-05-02T11:53:23;97130.09;;;17.13;52.41
50977;BME280;36992;48.200;12.418;2023-05-02T11:55:51;97134.91;;;17.17;52.68
50977;BME280;36992;48.200;12.418;2023-05-02T11:58:19;97137.78;;;17.20;52.22
50977;BME280;36992;48.200;12.418;2023-05-02T12:00:46;97137.13;;;17.23;51.79
50977;BME280;36992;48.200;12.418;2023-05-02T12:03:25;97142.06;;;17.30;51.43
50977;BME280;36992;48.200;12.418;2023-05-02T12:05:51;97145.44;;;17.27;49.96
50977;BME280;36992;48.200;12.418;2023-05-02T12:08:19;97141.09;;;17.26;48.21
50977;BME280;36992;48.200;12.418;2023-05-02T12:10:48;97148.19;;;17.27;48.32
50977;BME280;36992;48.200;12.418;2023-05-02T12:13:15;97147.22;;;17.23;48.00
50977;BME280;36992;48.200;12.418;2023-05-02T12:15:42;97144.50;;;17.23;47.45
50977;BME280;36992;48.200;12.418;2023-05-02T12:18:09;97146.75;;;17.21;47.15
50977;BME280;36992;48.200;12.418;2023-05-02T12:20:36;97147.84;;;17.20;47.45
50977;BME280;36992;48.200;12.418;2023-05-02T12:23:03;97138.75;;;17.16;47.50
50977;BME280;36992;48.200;12.418;2023-05-02T12:25:36;97143.53;;;17.19;48.74
50977;BME280;36992;48.200;12.418;2023-05-02T12:28:04;97146.94;;;17.16;48.48
50977;BME280;36992;48.200;12.418;2023-05-02T12:30:31;97143.72;;;17.13;48.70
50977;BME280;36992;48.200;12.418;2023-05-02T12:32:59;97146.44;;;17.13;46.75
50977;BME280;36992;48.200;12.418;2023-05-02T12:35:27;97138.94;;;17.10;48.38
50977;BME280;36992;48.200;12.418;2023-05-02T12:37:54;97147.09;;;17.10;47.35
50977;BME280;36992;48.200;12.418;2023-05-02T12:40:32;97146.63;;;17.08;47.22
50977;BME280;36992;48.200;12.418;2023-05-02T12:42:59;97147.72;;;17.07;47.19
50977;BME280;36992;48.200;12.418;2023-05-02T12:45:29;97147.72;;;17.07;46.82
50977;BME280;36992;48.200;12.418;2023-05-02T12:47:58;97145.19;;;17.02;47.02
50977;BME280;36992;48.200;12.418;2023-05-02T12:50:34;97147.25;;;17.05;47.92
50977;BME280;36992;48.200;12.418;2023-05-02T12:53:01;97155.09;;;16.98;47.87
50977;BME280;36992;48.200;12.418;2023-05-02T12:55:28;97156.69;;;16.99;47.01
50977;BME280;36992;48.200;12.418;2023-05-02T12:57:59;97158.81;;;17.02;47.22
50977;BME280;36992;48.200;12.418;2023-05-02T13:00:26;97160.53;;;16.98;46.55